Time;durP1;ratioP1;P1;durP2;ratioP2;P2;SDS_P1;SDS_P2;PMS_P1;PMS_P2;Temp;Humidity;BMP_temperature;BMP_pressure;BME280_temperature;BME280_humidity;BME280_pressure;Samples;Min_cycle;Max_cycle;Signal;HPM_P1;HPM_P2
2023/01/14 00:00:09;;;;;;;6.22;1.95;;;;;;;7.59;78.22;100859.59;6212878;23;20020;-89
2023/01/14 00:02:34;;;;;;;8.73;2.40;;;;;;;7.56;78.14;100858.06;6186894;23;20004;-89
2023/01/14 00:05:00;;;;;;;7.53;2.28;;;;;;;7.55;78.39;100864.25;6186770;23;20023;-88
2023/01/14 00:07:25;;;;;;;13.20;2.47;;;;;;;7.53;78.40;100858.31;6187847;23;20080;-88
2023/01/14 00:09:50;;;;;;;6.95;2.33;;;;;;;7.54;78.31;100862.59;6187700;23;20023;-89
2023/01/14 00:12:19;;;;;;;9.07;2.30;;;;;;;7.51;78.17;100856.75;6185622;23;20031;-88
2023/01/14 00:14:44;;;;;;;12.43;2.70;;;;;;;7.50;78.35;100850.66;6187789;23;20008;-88
2023/01/14 00:17:09;;;;;;;10.50;2.38;;;;;;;7.55;78.00;100847.66;6188525;23;20027;-88
2023/01/14 00:19:35;;;;;;;9.88;2.10;;;;;;;7.54;78.15;100862.59;6188192;23;20088;-90
2023/01/14 00:22:00;;;;;;;9.50;2.38;;;;;;;7.54;77.74;100856.50;6189450;23;20040;-88
2023/01/14 00:24:25;;;;;;;8.07;2.47;;;;;;;7.48;77.73;100854.38;6184703;23;20024;-89
2023/01/14 00:26:53;;;;;;;10.02;2.78;;;;;;;7.46;77.98;100862.41;6186211;23;20492;-88
2023/01/14 00:29:22;;;;;;;9.00;2.30;;;;;;;7.45;77.69;100866.81;6187806;23;20028;-87
2023/01/14 00:31:48;;;;;;;7.70;2.20;;;;;;;7.47;77.93;100868.50;6213966;23;20322;-87
2023/01/14 00:34:14;;;;;;;8.52;2.35;;;;;;;7.47;77.85;100879.84;6186122;23;20016;-87
2023/01/14 00:36:43;;;;;;;8.48;2.20;;;;;;;7.44;77.77;100877.47;6213711;23;20048;-87
2023/01/14 00:39:08;;;;;;;10.43;2.10;;;;;;;7.48;77.67;100878.88;6213241;23;20016;-87
2023/01/14 00:41:33;;;;;;;12.00;2.78;;;;;;;7.46;77.64;100878.19;6210731;23;20047;-87
2023/01/14 00:43:59;;;;;;;6.32;2.20;;;;;;;7.42;77.52;100876.75;6186578;23;20016;-87
2023/01/14 00:46:27;;;;;;;5.95;2.30;;;;;;;7.38;77.49;100875.31;6186093;23;20016;-86
2023/01/14 00:48:52;;;;;;;9.23;2.08;;;;;;;7.33;77.48;100886.19;6186630;23;20017;-87
2023/01/14 00:51:19;;;;;;;5.47;1.98;;;;;;;7.27;77.49;100880.59;6186532;23;20160;-87
2023/01/14 00:53:48;;;;;;;5.95;1.65;;;;;;;7.21;77.69;100887.19;6187753;23;20699;-86
2023/01/14 00:56:14;;;;;;;7.57;1.85;;;;;;;7.14;77.52;100881.56;6213963;23;20032;-86
2023/01/14 00:58:40;;;;;;;9.18;2.03;;;;;;;7.12;77.83;100874.75;6202662;23;20041;-85
2023/01/14 01:01:06;;;;;;;7.35;2.08;;;;;;;7.03;77.83;100878.94;6235806;23;20012;-87
2023/01/14 01:03:36;;;;;;;7.72;2.58;;;;;;;7.00;78.24;100872.13;6195281;23;20506;-87
2023/01/14 01:06:01;;;;;;;13.40;2.58;;;;;;;6.98;78.07;100875.81;6224122;23;20067;-89
2023/01/14 01:08:27;;;;;;;8.77;2.30;;;;;;;6.90;79.00;100867.72;6195009;23;20488;-87
2023/01/14 01:10:53;;;;;;;11.30;2.10;;;;;;;6.90;78.87;100876.44;6228490;23;20024;-87
2023/01/14 01:13:20;;;;;;;9.75;2.33;;;;;;;6.88;79.06;100877.50;6221444;23;20009;-87
2023/01/14 01:15:45;;;;;;;11.80;2.50;;;;;;;6.85;79.62;100878.59;6220456;23;20020;-87
2023/01/14 01:18:12;;;;;;;9.35;2.33;;;;;;;6.84;79.57;100878.69;6208053;23;20012;-87
2023/01/14 01:20:38;;;;;;;8.00;2.30;;;;;;;6.82;80.55;100884.09;6204847;23;20032;-88
2023/01/14 01:23:04;;;;;;;10.43;2.30;;;;;;;6.85;79.88;100877.75;6219172;23;20013;-88
2023/01/14 01:25:30;;;;;;;7.32;2.33;;;;;;;6.85;79.88;100873.31;6190279;23;20020;-89
2023/01/14 01:27:56;;;;;;;9.02;2.30;;;;;;;6.86;79.69;100885.50;6189347;23;20091;-88
2023/01/14 01:30:23;;;;;;;7.50;2.35;;;;;;;6.84;79.96;100874.31;6188303;23;22288;-87
2023/01/14 01:32:49;;;;;;;9.10;2.30;;;;;;;6.87;79.93;100879.31;6188365;23;20103;-90
2023/01/14 01:35:14;;;;;;;10.63;2.20;;;;;;;6.87;80.39;100889.81;6214448;23;20021;-88
2023/01/14 01:37:40;;;;;;;6.47;1.83;;;;;;;6.88;80.08;100894.09;6189566;23;20016;-88
2023/01/14 01:40:06;;;;;;;9.43;2.10;;;;;;;6.87;80.05;100895.06;6189343;23;20095;-87
2023/01/14 01:42:34;;;;;;;9.32;2.25;;;;;;;6.91;79.75;100895.66;6188217;23;20012;-87
2023/01/14 01:45:20;;;;;;;9.23;2.50;;;;;;;6.82;80.03;100905.13;6214321;23;20017;-88
2023/01/14 01:47:47;;;;;;;10.80;2.65;;;;;;;6.81;79.74;100899.00;6216189;23;20387;-88
2023/01/14 01:50:13;;;;;;;9.25;2.08;;;;;;;6.79;79.58;100908.81;6189542;23;20092;-88
2023/01/14 01:52:39;;;;;;;10.00;2.38;;;;;;;6.78;79.75;100903.66;6193785;23;20013;-88
2023/01/14 01:55:09;;;;;;;14.07;2.58;;;;;;;6.81;79.47;100900.78;6190730;23;20017;-87
2023/01/14 01:57:35;;;;;;;13.27;2.78;;;;;;;6.82;79.59;100899.84;6187735;23;20481;-88
2023/01/14 02:00:07;;;;;;;9.43;2.10;;;;;;;6.83;79.32;100895.44;6187022;23;20512;-88
2023/01/14 02:02:32;;;;;;;11.52;2.78;;;;;;;6.73;79.27;100898.75;6186386;23;20554;-88
2023/01/14 02:04:58;;;;;;;10.02;2.38;;;;;;;6.61;79.75;100907.59;6213877;23;20012;-88
2023/01/14 02:07:25;;;;;;;12.35;2.22;;;;;;;6.57;79.70;100914.84;6187861;23;20032;-87
2023/01/14 02:09:55;;;;;;;11.15;2.60;;;;;;;6.55;79.93;100908.91;6186190;23;20016;-88
2023/01/14 02:12:28;;;;;;;9.83;2.47;;;;;;;6.50;80.24;100908.38;6212941;23;20322;-87
2023/01/14 02:15:12;;;;;;;10.35;2.75;;;;;;;6.50;80.07;100907.56;6186137;23;20027;-87
2023/01/14 02:18:09;;;;;;;9.68;2.40;;;;;;;6.46;80.43;100908.75;6212976;23;20036;-87
2023/01/14 02:20:43;;;;;;;9.50;2.20;;;;;;;6.41;80.33;100905.63;6186284;23;20088;-89
2023/01/14 02:23:23;;;;;;;9.50;2.53;;;;;;;6.30;80.81;100907.28;6188250;23;20024;-87
2023/01/14 02:26:08;;;;;;;6.30;2.22;;;;;;;6.27;80.68;100914.53;6189354;23;20023;-86
2023/01/14 02:29:04;;;;;;;11.07;2.15;;;;;;;6.18;80.91;100907.38;6184411;23;20016;-87
2023/01/14 02:32:01;;;;;;;8.75;2.50;;;;;;;6.13;80.73;100897.19;6211737;23;20022;-86
2023/01/14 02:34:36;;;;;;;10.02;2.22;;;;;;;6.07;81.25;100903.72;6192091;23;20008;-87
2023/01/14 02:37:20;;;;;;;8.88;2.10;;;;;;;6.03;81.50;100898.81;6187436;23;20028;-88
2023/01/14 02:40:10;;;;;;;11.63;2.78;;;;;;;5.97;81.52;100902.72;6186220;23;20017;-87
2023/01/14 02:45:48;;;;;;;7.07;1.80;;;;;;;5.92;81.70;100915.34;6213035;23;20066;-88
2023/01/14 02:48:16;;;;;;;9.63;2.03;;;;;;;5.93;81.97;100909.97;6186138;23;20023;-88
2023/01/14 02:50:41;;;;;;;8.98;2.20;;;;;;;6.00;82.27;100910.38;6186639;23;20504;-87
2023/01/14 02:53:14;;;;;;;10.63;2.28;;;;;;;6.05;81.91;100907.41;6187471;23;20028;-87
2023/01/14 02:55:40;;;;;;;11.65;2.63;;;;;;;6.04;82.14;100905.75;6188229;23;20016;-87
2023/01/14 02:58:05;;;;;;;9.15;2.10;;;;;;;6.05;82.56;100912.66;6200862;23;20028;-89
2023/01/14 03:00:43;;;;;;;6.60;1.70;;;;;;;6.04;82.21;100909.22;6190543;23;20020;-88
2023/01/14 03:03:52;;;;;;;8.38;1.70;;;;;;;5.98;81.92;100904.41;6190688;23;20009;-87
2023/01/14 03:06:25;;;;;;;7.68;1.88;;;;;;;5.87;82.17;100902.53;6189042;23;20070;-90
2023/01/14 03:09:03;;;;;;;8.98;2.10;;;;;;;5.77;82.26;100904.16;6189878;23;20036;-88
2023/01/14 03:11:53;;;;;;;7.28;1.95;;;;;;;5.65;82.34;100890.16;6190414;23;20016;-89
2023/01/14 03:14:26;;;;;;;9.82;2.63;;;;;;;5.58;82.95;100886.28;6189122;23;20096;-89
2023/01/14 03:16:59;;;;;;;18.48;3.03;;;;;;;5.54;83.36;100880.41;6190460;23;20031;-89
2023/01/14 03:19:31;;;;;;;8.85;2.10;;;;;;;5.47;82.92;100875.72;6190714;23;20020;-90
2023/01/14 03:21:59;;;;;;;7.72;2.00;;;;;;;5.46;83.07;100871.44;6190671;23;20013;-89
2023/01/14 03:24:37;;;;;;;9.20;2.05;;;;;;;5.42;83.71;100868.19;6189272;23;20067;-89
2023/01/14 03:27:05;;;;;;;;;;;;;;;5.36;83.90;100876.47;6191252;23;20357;-87
2023/01/14 03:29:41;;;;;;;9.80;2.15;;;;;;;5.33;83.84;100864.44;6190471;23;19908;-88
2023/01/14 03:32:08;;;;;;;10.27;2.35;;;;;;;5.28;84.07;100856.06;6190449;23;20028;-88
2023/01/14 03:34:40;;;;;;;14.80;2.28;;;;;;;5.29;84.56;100864.75;6190985;23;20019;-88
2023/01/14 03:37:10;;;;;;;6.57;2.03;;;;;;;5.30;84.56;100858.59;6191033;23;20020;-88
2023/01/14 03:39:36;;;;;;;8.70;2.38;;;;;;;5.39;85.43;100865.81;6188256;23;20375;-88
2023/01/14 03:42:19;;;;;;;;;;;;;;;5.37;85.85;100861.63;6191380;23;20017;-89
2023/01/14 03:45:03;;;;;;;11.52;2.00;;;;;;;5.36;85.70;100858.13;6190259;23;19954;-88
2023/01/14 03:47:31;;;;;;;10.35;2.17;;;;;;;5.38;85.55;100848.38;6188286;23;20067;-88
2023/01/14 03:50:00;;;;;;;6.80;2.40;;;;;;;5.38;85.99;100847.53;6187458;23;20023;-88
2023/01/14 03:52:52;;;;;;;12.82;3.13;;;;;;;5.39;85.15;100851.84;6186712;23;20036;-88
2023/01/14 03:55:40;;;;;;;8.43;2.40;;;;;;;5.36;85.64;100844.19;6150528;23;20479;-86
2023/01/14 03:58:34;;;;;;;10.23;2.67;;;;;;;5.31;85.37;100847.13;6191027;23;20083;-88
2023/01/14 04:01:08;;;;;;;5.30;2.25;;;;;;;5.24;86.42;100845.91;6195825;23;20064;-87
2023/01/14 04:03:35;;;;;;;9.52;2.40;;;;;;;5.23;85.54;100839.81;6200647;23;20016;-88
2023/01/14 04:06:01;;;;;;;10.05;2.20;;;;;;;5.20;85.52;100841.84;6209985;23;20011;-88
2023/01/14 04:08:26;;;;;;;11.05;2.83;;;;;;;5.15;86.14;100842.16;6204434;23;20012;-88
2023/01/14 04:10:52;;;;;;;12.70;2.08;;;;;;;5.13;85.98;100838.81;6197744;23;20471;-87
2023/01/14 04:16:02;;;;;;;9.45;2.17;;;;;;;5.05;86.14;100822.78;6213370;23;20032;-86
2023/01/14 04:18:27;;;;;;;;;;;;;;;5.01;86.66;100831.81;6186274;23;20008;-88
2023/01/14 04:20:52;;;;;;;9.60;2.20;;;;;;;4.96;86.50;100828.66;6186568;23;19927;-89
2023/01/14 04:23:17;;;;;;;10.30;2.63;;;;;;;4.95;86.21;100827.00;6186933;23;20594;-87
2023/01/14 04:25:43;;;;;;;8.18;1.90;;;;;;;4.96;86.15;100831.28;6185586;23;20020;-87
2023/01/14 04:28:09;;;;;;;;;;;;;;;4.94;86.54;100817.47;6187584;23;20036;-86
2023/01/14 04:30:34;;;;;;;12.77;2.37;;;;;;;4.96;86.48;100819.03;6187202;23;19958;-86
2023/01/14 04:32:59;;;;;;;10.68;2.40;;;;;;;4.96;87.52;100818.19;6186956;23;20013;-86
2023/01/14 04:35:25;;;;;;;9.43;2.47;;;;;;;5.01;87.42;100824.78;6215067;23;20491;-86
2023/01/14 04:37:54;;;;;;;8.63;2.67;;;;;;;5.17;87.62;100811.41;6185959;23;20376;-85
2023/01/14 04:40:19;;;;;;;9.48;2.22;;;;;;;5.22;87.34;100811.09;6187382;23;20096;-88
2023/01/14 04:42:44;;;;;;;9.00;2.40;;;;;;;5.25;87.51;100800.41;6188491;23;20395;-86
2023/01/14 04:45:11;;;;;;;11.65;2.53;;;;;;;5.29;87.31;100797.44;6188764;23;20440;-86
2023/01/14 04:47:38;;;;;;;8.80;2.60;;;;;;;5.34;87.66;100794.50;6188228;23;20028;-86
2023/01/14 04:50:30;;;;;;;8.60;2.35;;;;;;;5.48;87.25;100782.97;6212212;23;20387;-89
2023/01/14 04:52:49;;;;;;;9.27;2.40;;;;;;;5.53;87.26;100796.63;6214055;23;20019;-88
2023/01/14 04:55:15;;;;;;;12.85;2.28;;;;;;;5.50;87.05;100792.41;6189178;23;20460;-88
2023/01/14 04:57:40;;;;;;;7.00;1.85;;;;;;;5.54;86.98;100787.78;6202509;23;20043;-89
2023/01/14 05:00:06;;;;;;;7.60;2.27;;;;;;;5.66;86.96;100807.84;6232161;23;20429;-90
2023/01/14 05:02:32;;;;;;;8.23;2.37;;;;;;;5.75;86.80;100803.72;6191266;23;20418;-88
2023/01/14 05:04:57;;;;;;;5.55;1.80;;;;;;;5.81;86.76;100820.78;6186934;23;20452;-87
2023/01/14 05:07:22;;;;;;;10.48;2.30;;;;;;;5.72;87.05;100817.06;6186564;23;20460;-87
2023/01/14 05:09:48;;;;;;;9.93;2.53;;;;;;;5.71;86.85;100812.78;6186602;23;20500;-88
2023/01/14 05:12:13;;;;;;;;;;;;;;;5.63;86.76;100809.88;6184374;23;20009;-87
2023/01/14 05:14:38;;;;;;;;;;;;;;;5.56;86.77;100804.25;6185742;23;19918;-87
2023/01/14 05:17:03;;;;;;;10.77;2.57;;;;;;;5.54;86.79;100788.63;6184666;23;20307;-87
2023/01/14 05:19:29;;;;;;;9.50;2.40;;;;;;;5.50;86.41;100788.94;6184587;23;20043;-87
2023/01/14 05:21:54;;;;;;;9.13;2.40;;;;;;;5.64;86.67;100778.28;6181820;23;21117;-86
2023/01/14 05:24:19;;;;;;;6.13;2.17;;;;;;;5.76;86.34;100776.53;6208304;23;21031;-87
2023/01/14 05:26:44;;;;;;;10.15;2.50;;;;;;;5.77;86.43;100774.72;6210283;23;20017;-87
2023/01/14 05:29:10;;;;;;;8.47;2.20;;;;;;;5.86;86.30;100769.63;6182443;23;20711;-86
2023/01/14 05:31:35;;;;;;;5.90;1.97;;;;;;;5.93;85.87;100770.88;6182013;23;20379;-87
2023/01/14 05:34:02;;;;;;;6.47;1.90;;;;;;;6.08;85.82;100768.91;6208912;23;20878;-87
2023/01/14 05:36:28;;;;;;;7.25;2.00;;;;;;;6.15;85.34;100762.22;6208833;23;20406;-88
2023/01/14 05:38:53;;;;;;;6.23;1.90;;;;;;;6.26;84.92;100769.25;6182528;23;20371;-87
2023/01/14 05:41:18;;;;;;;7.30;1.90;;;;;;;6.34;84.97;100763.41;6183294;23;20367;-87
2023/01/14 05:46:28;;;;;;;7.63;2.00;;;;;;;6.38;84.42;100756.97;6211674;23;20023;-88
2023/01/14 05:48:53;;;;;;;8.43;2.20;;;;;;;6.35;84.00;100755.44;6184011;23;20020;-87
2023/01/14 05:51:18;;;;;;;6.95;1.90;;;;;;;6.34;83.56;100745.03;6184361;23;20012;-87
2023/01/14 05:53:44;;;;;;;12.57;2.55;;;;;;;6.35;83.17;100738.84;6186162;23;20070;-87
2023/01/14 05:56:09;;;;;;;8.18;1.95;;;;;;;6.35;83.09;100739.66;6182713;23;20044;-88
2023/01/14 05:58:35;;;;;;;8.80;1.80;;;;;;;6.32;82.81;100728.59;6186734;23;20069;-88
2023/01/14 06:06:43;;;;;;;7.45;2.25;;;;;;;6.27;82.81;100725.44;6214064;23;20020;-85
2023/01/14 06:09:11;;;;;;;8.55;2.38;;;;;;;6.26;82.52;100714.13;6189009;23;20452;-86
2023/01/14 06:11:41;;;;;;;7.90;1.83;;;;;;;6.25;82.59;100709.00;6188801;23;20055;-86
2023/01/14 06:14:06;;;;;;;7.93;2.13;;;;;;;6.23;82.79;100710.91;6188292;23;20016;-86
2023/01/14 06:16:39;;;;;;;6.85;2.53;;;;;;;6.23;82.75;100708.28;6186267;23;20012;-88
2023/01/14 06:19:10;;;;;;;12.00;2.35;;;;;;;6.21;82.99;100712.81;6186291;23;20017;-87
2023/01/14 06:21:36;;;;;;;10.20;3.00;;;;;;;6.19;82.71;100706.84;6186678;23;20330;-88
2023/01/14 06:24:01;;;;;;;8.20;2.20;;;;;;;6.19;82.84;100707.66;6186709;23;20013;-87
2023/01/14 06:26:28;;;;;;;7.53;1.88;;;;;;;6.16;82.76;100707.91;6186245;23;20012;-88
2023/01/14 06:29:02;;;;;;;6.88;2.10;;;;;;;6.12;82.85;100702.06;6212884;23;20028;-87
2023/01/14 06:31:28;;;;;;;5.97;1.95;;;;;;;6.09;83.24;100704.91;6186295;23;20015;-87
2023/01/14 06:33:55;;;;;;;9.48;2.08;;;;;;;6.11;82.93;100700.41;6212999;23;20035;-87
2023/01/14 06:36:21;;;;;;;8.18;2.28;;;;;;;6.08;83.33;100699.81;6185261;23;20031;-88
2023/01/14 06:38:46;;;;;;;6.10;1.70;;;;;;;6.10;83.28;100696.13;6188370;23;20016;-89
2023/01/14 06:41:12;;;;;;;5.63;2.03;;;;;;;6.04;83.67;100693.94;6188518;23;20488;-87
2023/01/14 06:43:42;;;;;;;6.82;1.90;;;;;;;6.09;83.43;100694.44;6189655;23;20016;-85
2023/01/14 06:46:09;;;;;;;6.45;1.90;;;;;;;6.16;83.38;100686.91;6190104;23;20019;-87
2023/01/14 06:48:34;;;;;;;7.50;1.70;;;;;;;6.15;83.52;100686.09;6190848;23;20084;-88
2023/01/14 06:51:08;;;;;;;6.88;2.22;;;;;;;6.22;83.21;100682.97;6190011;23;20020;-86
2023/01/14 06:53:34;;;;;;;11.32;2.50;;;;;;;6.21;83.11;100676.88;6189072;23;20376;-87
2023/01/14 06:56:04;;;;;;;8.07;2.22;;;;;;;6.20;83.29;100671.75;6186887;23;20071;-87
2023/01/14 06:58:29;;;;;;;7.38;2.00;;;;;;;6.23;83.01;100667.09;6210725;23;20028;-87
2023/01/14 07:00:56;;;;;;;7.63;2.58;;;;;;;6.26;83.42;100671.28;6211368;23;20024;-87
2023/01/14 07:03:22;;;;;;;8.68;2.83;;;;;;;6.32;83.42;100666.38;6211285;23;20020;-87
2023/01/14 07:05:47;;;;;;;7.85;2.38;;;;;;;6.42;82.91;100661.22;6214670;23;20050;-89
2023/01/14 07:08:12;;;;;;;8.45;2.13;;;;;;;6.49;82.53;100651.09;6186766;23;20382;-88
2023/01/14 07:10:38;;;;;;;9.05;2.10;;;;;;;6.54;82.54;100644.50;6222029;23;20040;-88
2023/01/14 07:13:03;;;;;;;11.13;2.40;;;;;;;6.62;82.29;100643.03;6213361;23;20078;-88
2023/01/14 07:15:28;;;;;;;7.47;1.98;;;;;;;6.67;81.84;100639.06;6186932;23;20023;-88
2023/01/14 07:17:54;;;;;;;8.77;1.98;;;;;;;6.70;81.52;100628.34;6186598;23;20028;-88
2023/01/14 07:20:19;;;;;;;10.02;2.55;;;;;;;6.75;81.68;100625.34;6187073;23;20008;-88
2023/01/14 07:22:45;;;;;;;8.70;2.22;;;;;;;6.80;81.14;100629.25;6213395;23;20016;-87
2023/01/14 07:25:10;;;;;;;11.73;2.58;;;;;;;6.86;80.82;100627.06;6187179;23;20074;-88
2023/01/14 07:27:36;;;;;;;9.15;2.10;;;;;;;6.92;80.86;100616.06;6187022;23;20017;-88
2023/01/14 07:30:02;;;;;;;7.53;2.00;;;;;;;6.92;81.04;100613.44;6187192;23;20474;-88
2023/01/14 07:32:28;;;;;;;11.00;2.35;;;;;;;6.94;80.54;100614.97;6186201;23;20005;-88
2023/01/14 07:34:53;;;;;;;10.65;2.65;;;;;;;6.97;80.81;100614.72;6212921;23;20024;-87
2023/01/14 07:37:19;;;;;;;11.13;2.45;;;;;;;7.02;80.70;100611.72;6186141;23;20021;-87
2023/01/14 07:39:44;;;;;;;10.60;2.35;;;;;;;7.04;80.71;100611.59;6185819;23;20047;-88
2023/01/14 07:42:10;;;;;;;9.82;2.03;;;;;;;7.05;80.59;100594.84;6212504;23;20017;-88
2023/01/14 07:44:35;;;;;;;12.70;2.47;;;;;;;7.07;80.37;100582.41;6187092;23;20019;-88
2023/01/14 07:47:01;;;;;;;14.82;2.53;;;;;;;7.08;80.43;100590.19;6213243;23;20027;-87
2023/01/14 07:49:26;;;;;;;13.52;2.28;;;;;;;7.13;80.46;100588.00;6185465;23;20017;-88
2023/01/14 07:51:52;;;;;;;14.38;2.72;;;;;;;7.16;80.24;100581.66;6185619;23;20036;-88
2023/01/14 07:54:18;;;;;;;13.50;2.53;;;;;;;7.17;79.89;100583.31;6182342;23;20054;-87
2023/01/14 07:56:46;;;;;;;10.50;2.42;;;;;;;7.15;79.98;100574.72;6185570;23;20070;-88
2023/01/14 07:59:12;;;;;;;7.80;2.03;;;;;;;7.18;79.96;100575.31;6184963;23;20016;-88
2023/01/14 08:01:38;;;;;;;12.07;2.17;;;;;;;7.24;79.90;100579.19;6184315;23;20143;-88
2023/01/14 08:04:03;;;;;;;11.85;2.55;;;;;;;7.23;79.39;100582.81;6185785;23;20233;-87
2023/01/14 08:06:29;;;;;;;7.55;2.03;;;;;;;7.20;79.67;100577.81;6184188;23;20012;-88
2023/01/14 08:08:55;;;;;;;14.60;2.42;;;;;;;7.26;79.87;100581.72;6211724;23;20016;-88
2023/01/14 08:11:21;;;;;;;9.02;2.55;;;;;;;7.26;79.47;100576.44;6185860;23;20020;-89
2023/01/14 08:13:49;;;;;;;11.82;2.30;;;;;;;7.28;79.13;100570.09;6184533;23;20400;-88
2023/01/14 08:16:15;;;;;;;14.05;2.72;;;;;;;7.30;78.91;100568.19;6183993;23;20373;-87
2023/01/14 08:18:41;;;;;;;11.68;2.47;;;;;;;7.41;78.82;100583.03;6213650;23;20027;-87
2023/01/14 08:21:08;;;;;;;11.57;2.17;;;;;;;7.41;78.54;100585.66;6185539;23;20452;-88
2023/01/14 08:23:34;;;;;;;13.93;2.42;;;;;;;7.43;78.75;100581.13;6214771;23;20016;-89
2023/01/14 08:26:01;;;;;;;8.50;2.00;;;;;;;7.44;78.76;100578.38;6190560;23;20030;-86
2023/01/14 08:28:35;;;;;;;7.75;2.10;;;;;;;7.47;78.77;100572.00;6188898;23;20008;-86
2023/01/14 08:31:03;;;;;;;10.63;2.33;;;;;;;7.47;78.84;100561.47;6188293;23;20016;-86
2023/01/14 08:33:28;;;;;;;8.68;2.10;;;;;;;7.54;78.52;100559.16;6189649;23;20008;-88
2023/01/14 08:35:54;;;;;;;8.25;2.30;;;;;;;7.52;78.17;100561.91;6188632;23;20036;-86
2023/01/14 08:38:19;;;;;;;;;;;;;;;7.57;78.22;100556.25;6188418;23;20456;-86
2023/01/14 08:40:47;;;;;;;11.93;2.27;;;;;;;7.59;78.42;100555.16;6216302;23;19908;-87
2023/01/14 08:43:13;;;;;;;10.43;1.80;;;;;;;7.61;78.57;100553.22;6190263;23;20250;-88
2023/01/14 08:45:41;;;;;;;8.27;1.95;;;;;;;7.53;79.51;100557.47;6188103;23;20418;-88
2023/01/14 08:48:06;;;;;;;8.15;2.28;;;;;;;7.35;80.58;100549.38;6186612;23;20017;-89
2023/01/14 08:50:31;;;;;;;10.35;2.25;;;;;;;7.23;81.78;100549.44;6188467;23;20016;-85
2023/01/14 08:52:57;;;;;;;11.60;2.42;;;;;;;7.12;82.58;100544.25;6190659;23;20031;-86
2023/01/14 08:55:22;;;;;;;8.50;2.40;;;;;;;7.12;82.85;100541.63;6191270;23;20155;-87
2023/01/14 08:57:48;;;;;;;12.10;2.47;;;;;;;7.13;83.37;100535.41;6191343;23;20016;-87
2023/01/14 09:00:14;;;;;;;7.32;2.00;;;;;;;7.14;83.45;100530.97;6189504;23;20384;-86
2023/01/14 09:02:39;;;;;;;8.27;1.60;;;;;;;7.12;84.30;100527.63;6190552;23;20411;-86
2023/01/14 09:05:05;;;;;;;9.73;2.33;;;;;;;7.18;84.03;100522.69;6190095;23;20051;-86
2023/01/14 09:18:26;;;;;;;9.95;1.85;;;;;;;7.45;83.93;100518.69;6220023;23;20039;-85
2023/01/14 09:20:52;;;;;;;9.50;2.40;;;;;;;7.54;83.78;100506.53;6195045;23;20016;-85
2023/01/14 09:23:17;;;;;;;11.55;2.17;;;;;;;7.62;83.45;100506.69;6195622;23;20063;-86
2023/01/14 09:25:43;;;;;;;8.25;2.30;;;;;;;7.66;83.12;100508.09;6205221;23;20017;-86
2023/01/14 09:28:09;;;;;;;7.47;1.73;;;;;;;7.74;82.91;100508.25;6238855;23;20072;-91
2023/01/14 09:30:34;;;;;;;8.93;2.15;;;;;;;7.73;82.69;100503.16;6212653;23;20021;-90
2023/01/14 09:33:00;;;;;;;7.95;2.50;;;;;;;7.77;82.33;100501.88;6195753;23;20033;-85
2023/01/14 09:35:25;;;;;;;11.15;1.90;;;;;;;7.83;81.86;100496.09;6220811;23;20032;-87
2023/01/14 09:37:51;;;;;;;8.20;2.03;;;;;;;7.88;81.46;100493.88;6192707;23;20013;-86
2023/01/14 09:40:19;;;;;;;8.98;2.20;;;;;;;7.96;81.13;100487.94;6193247;23;20020;-86
2023/01/14 09:42:47;;;;;;;9.32;2.08;;;;;;;8.01;80.66;100489.22;6194538;23;20452;-87
2023/01/14 09:45:23;;;;;;;10.13;2.65;;;;;;;8.11;80.28;100488.41;6221300;23;20012;-86
2023/01/14 09:47:49;;;;;;;11.63;2.10;;;;;;;8.16;79.52;100471.22;6193232;23;20036;-87
2023/01/14 09:50:16;;;;;;;8.32;1.90;;;;;;;8.23;79.52;100468.88;6190779;23;20345;-86
2023/01/14 09:53:08;;;;;;;6.35;1.83;;;;;;;8.29;79.08;100444.59;6193093;23;20036;-87
2023/01/14 09:55:39;;;;;;;5.63;1.75;;;;;;;8.39;78.50;100440.16;6189832;23;20407;-86
2023/01/14 09:58:20;;;;;;;7.03;1.98;;;;;;;8.42;78.37;100441.72;6191355;23;20385;-87
2023/01/14 10:00:49;;;;;;;;;;;;;;;8.48;78.06;100447.22;6218946;23;20372;-88
2023/01/14 10:03:23;;;;;;;7.72;1.80;;;;;;;8.54;77.81;100437.94;6194026;23;19908;-86
2023/01/14 10:05:57;;;;;;;8.40;2.08;;;;;;;8.62;77.73;100439.88;6219135;23;20387;-87
2023/01/14 10:08:25;;;;;;;5.97;1.63;;;;;;;8.64;77.11;100443.22;6192353;23;20036;-88
2023/01/14 10:10:52;;;;;;;7.13;1.70;;;;;;;8.70;77.00;100440.03;6192657;23;20043;-86
2023/01/14 10:13:34;;;;;;;6.07;1.67;;;;;;;8.73;76.75;100418.63;6192393;23;20013;-87
2023/01/14 10:16:04;;;;;;;6.85;1.60;;;;;;;8.76;76.35;100425.44;6191606;23;20034;-87
2023/01/14 10:18:40;;;;;;;10.48;2.05;;;;;;;8.77;76.14;100425.31;6191596;23;20012;-88
2023/01/14 10:21:17;;;;;;;8.65;1.50;;;;;;;8.84;76.18;100425.53;6193886;23;20054;-88
2023/01/14 10:23:42;;;;;;;7.35;1.55;;;;;;;8.83;75.89;100415.97;6193966;23;20309;-90
2023/01/14 10:26:19;;;;;;;6.18;1.60;;;;;;;8.85;76.41;100406.13;6192482;23;20021;-87
2023/01/14 10:28:48;;;;;;;4.28;1.40;;;;;;;8.83;76.65;100402.78;6190750;23;20012;-87
2023/01/14 10:31:27;;;;;;;7.93;1.60;;;;;;;8.84;76.41;100393.91;6191322;23;20023;-87
2023/01/14 10:33:53;;;;;;;5.45;1.65;;;;;;;8.93;76.38;100396.50;6184916;23;20491;-88
2023/01/14 10:36:22;;;;;;;5.30;1.58;;;;;;;8.92;76.19;100386.13;6209249;23;20013;-88
2023/01/14 10:38:48;;;;;;;5.88;1.50;;;;;;;8.93;76.24;100385.13;6184099;23;20013;-89
2023/01/14 10:41:15;;;;;;;5.28;1.33;;;;;;;8.97;76.49;100378.59;6181700;23;20098;-89
2023/01/14 10:43:46;;;;;;;5.20;1.27;;;;;;;8.93;76.27;100369.31;6183539;23;20012;-88
2023/01/14 10:46:20;;;;;;;3.53;1.63;;;;;;;8.93;76.58;100362.22;6183173;23;20016;-88
2023/01/14 10:49:00;;;;;;;6.40;1.45;;;;;;;8.95;76.63;100351.53;6184292;23;20017;-88
2023/01/14 10:51:34;;;;;;;4.55;1.60;;;;;;;8.96;76.28;100345.25;6183258;23;20240;-88
2023/01/14 10:54:18;;;;;;;7.70;1.40;;;;;;;8.98;76.65;100339.84;6210776;23;20040;-89
2023/01/14 10:56:51;;;;;;;5.47;1.60;;;;;;;8.97;76.52;100327.66;6183938;23;20020;-89
2023/01/14 10:59:41;;;;;;;5.40;1.27;;;;;;;9.00;76.34;100315.00;6212464;23;20013;-89
2023/01/14 11:02:34;;;;;;;5.63;1.33;;;;;;;9.04;75.99;100323.47;6182976;23;20017;-89
2023/01/14 11:05:40;;;;;;;4.78;1.45;;;;;;;9.06;76.36;100318.88;6210971;23;20267;-89
2023/01/14 11:08:26;;;;;;;5.13;1.55;;;;;;;9.13;76.42;100304.13;6116701;23;20018;-89
2023/01/14 11:10:55;;;;;;;4.80;1.30;;;;;;;9.11;75.70;100301.63;6117788;23;20022;-89
2023/01/14 11:13:44;;;;;;;5.38;1.70;;;;;;;9.18;75.62;100288.66;6176121;23;20623;-89
2023/01/14 11:16:21;;;;;;;5.60;1.48;;;;;;;9.26;75.57;100291.38;6214382;23;20068;-89
2023/01/14 11:18:55;;;;;;;3.97;1.30;;;;;;;9.26;75.38;100291.38;6189570;23;20491;-88
2023/01/14 11:21:39;;;;;;;4.63;1.40;;;;;;;9.31;75.23;100285.66;6217489;23;20025;-89
2023/01/14 11:24:20;;;;;;;4.35;1.38;;;;;;;9.33;74.94;100279.25;6183390;23;20012;-89
2023/01/14 11:26:45;;;;;;;5.20;1.48;;;;;;;9.39;75.23;100267.28;6209348;23;20021;-88
2023/01/14 11:29:23;;;;;;;4.43;1.48;;;;;;;9.40;74.56;100258.38;6183785;23;20468;-90
2023/01/14 11:31:52;;;;;;;5.53;1.55;;;;;;;9.43;74.39;100259.88;6187736;23;20448;-89
2023/01/14 11:34:27;;;;;;;4.35;1.50;;;;;;;9.43;74.28;100242.22;6186656;23;20008;-89
2023/01/14 11:37:15;;;;;;;4.10;1.50;;;;;;;9.44;74.29;100232.50;6185998;23;20029;-89
2023/01/14 11:39:58;;;;;;;5.10;1.48;;;;;;;9.44;74.58;100229.84;6183287;23;20020;-89
2023/01/14 11:42:35;;;;;;;4.60;1.55;;;;;;;9.50;73.82;100214.25;6212736;23;20248;-87
2023/01/14 11:45:21;;;;;;;4.13;1.42;;;;;;;9.45;73.70;100199.88;6213277;23;20028;-87
2023/01/14 11:47:52;;;;;;;4.45;1.38;;;;;;;9.43;74.22;100189.44;6186215;23;20067;-86
2023/01/14 11:50:30;;;;;;;3.55;1.10;;;;;;;9.44;73.75;100171.78;6184918;23;20047;-88
2023/01/14 11:53:18;;;;;;;5.55;1.40;;;;;;;9.50;74.35;100173.84;6189037;23;20067;-87
2023/01/14 11:58:54;;;;;;;6.03;1.00;;;;;;;9.52;73.63;100138.38;6189631;23;20364;-86
2023/01/14 12:01:35;;;;;;;4.40;1.13;;;;;;;9.48;73.67;100131.75;6186222;23;20334;-87
2023/01/14 12:04:16;;;;;;;3.93;1.10;;;;;;;9.49;73.25;100127.31;6187586;23;20449;-88
2023/01/14 12:07:10;;;;;;;2.92;1.20;;;;;;;9.48;73.48;100118.56;6187209;23;20331;-87
2023/01/14 12:09:43;;;;;;;3.70;0.95;;;;;;;9.50;73.72;100107.84;6185997;23;20099;-87
2023/01/14 12:12:25;;;;;;;2.80;1.17;;;;;;;9.51;73.44;100094.50;6183626;23;20013;-88
2023/01/14 12:17:59;;;;;;;3.30;0.98;;;;;;;9.52;73.06;100072.41;6211340;23;20447;-88